sensor_id;sensor_type;location;lat;lon;timestamp;P1;durP1;ratioP1;P2;durP2;ratioP2
83893;SDS011;73920;51.902;6.374;2024-01-06T00:00:10;11.12;;;5.15;;
83893;SDS011;73920;51.902;6.374;2024-01-06T00:02:37;13.93;;;6.78;;
83893;SDS011;73920;51.902;6.374;2024-01-06T00:05:04;13.07;;;6.18;;
83893;SDS011;73920;51.902;6.374;2024-01-06T00:07:31;13.13;;;5.40;;
83893;SDS011;73920;51.902;6.374;2024-01-06T00:09:57;12.07;;;5.68;;
83893;SDS011;73920;51.902;6.374;2024-01-06T00:12:23;10.23;;;5.03;;
83893;SDS011;73920;51.902;6.374;2024-01-06T00:14:49;14.05;;;5.80;;
83893;SDS011;73920;51.902;6.374;2024-01-06T00:17:16;13.90;;;5.68;;
83893;SDS011;73920;51.902;6.374;2024-01-06T00:19:42;13.52;;;5.50;;
83893;SDS011;73920;51.902;6.374;2024-01-06T00:22:09;12.57;;;5.65;;
83893;SDS011;73920;51.902;6.374;2024-01-06T00:24:35;10.07;;;5.18;;
83893;SDS011;73920;51.902;6.374;2024-01-06T00:27:01;12.35;;;5.72;;
83893;SDS011;73920;51.902;6.374;2024-01-06T00:29:28;15.38;;;6.37;;
83893;SDS011;73920;51.902;6.374;2024-01-06T00:31:54;16.23;;;6.07;;
83893;SDS011;73920;51.902;6.374;2024-01-06T00:34:20;13.45;;;5.70;;
83893;SDS011;73920;51.902;6.374;2024-01-06T00:36:47;11.10;;;4.95;;
83893;SDS011;73920;51.902;6.374;2024-01-06T00:39:13;11.00;;;4.85;;
83893;SDS011;73920;51.902;6.374;2024-01-06T00:41:39;12.10;;;5.20;;
83893;SDS011;73920;51.902;6.374;2024-01-06T00:44:05;12.43;;;4.68;;
83893;SDS011;73920;51.902;6.374;2024-01-06T00:46:31;12.57;;;5.75;;
83893;SDS011;73920;51.902;6.374;2024-01-06T00:48:58;12.98;;;5.15;;
83893;SDS011;73920;51.902;6.374;2024-01-06T00:51:24;13.45;;;5.35;;
83893;SDS011;73920;51.902;6.374;2024-01-06T00:53:50;13.38;;;4.60;;
83893;SDS011;73920;51.902;6.374;2024-01-06T00:56:16;12.98;;;5.32;;
83893;SDS011;73920;51.902;6.374;2024-01-06T00:58:43;11.85;;;5.00;;
83893;SDS011;73920;51.902;6.374;2024-01-06T01:01:10;9.30;;;4.30;;
83893;SDS011;73920;51.902;6.374;2024-01-06T01:03:36;13.95;;;4.72;;
83893;SDS011;73920;51.902;6.374;2024-01-06T01:06:03;14.00;;;4.70;;
83893;SDS011;73920;51.902;6.374;2024-01-06T01:08:29;12.05;;;4.82;;
83893;SDS011;73920;51.902;6.374;2024-01-06T01:10:55;13.75;;;5.30;;
83893;SDS011;73920;51.902;6.374;2024-01-06T01:13:22;13.27;;;6.60;;
83893;SDS011;73920;51.902;6.374;2024-01-06T06:45:32;27.15;;;8.73;;
83893;SDS011;73920;51.902;6.374;2024-01-06T06:47:59;31.37;;;10.18;;
83893;SDS011;73920;51.902;6.374;2024-01-06T06:50:25;26.42;;;8.82;;
83893;SDS011;73920;51.902;6.374;2024-01-06T06:52:51;26.75;;;7.97;;
83893;SDS011;73920;51.902;6.374;2024-01-06T06:55:17;24.87;;;7.78;;
83893;SDS011;73920;51.902;6.374;2024-01-06T06:57:44;22.42;;;7.62;;
83893;SDS011;73920;51.902;6.374;2024-01-06T07:00:11;24.87;;;8.82;;
83893;SDS011;73920;51.902;6.374;2024-01-06T07:02:38;25.10;;;8.18;;
83893;SDS011;73920;51.902;6.374;2024-01-06T07:05:05;23.80;;;8.00;;
83893;SDS011;73920;51.902;6.374;2024-01-06T07:07:32;20.85;;;7.50;;
83893;SDS011;73920;51.902;6.374;2024-01-06T07:10:02;23.70;;;7.75;;
83893;SDS011;73920;51.902;6.374;2024-01-06T07:12:29;22.45;;;7.40;;
83893;SDS011;73920;51.902;6.374;2024-01-06T07:14:56;19.85;;;7.25;;
83893;SDS011;73920;51.902;6.374;2024-01-06T07:17:22;20.40;;;7.30;;
83893;SDS011;73920;51.902;6.374;2024-01-06T07:19:49;19.30;;;7.10;;
83893;SDS011;73920;51.902;6.374;2024-01-06T07:22:15;21.08;;;7.28;;
83893;SDS011;73920;51.902;6.374;2024-01-06T07:24:41;18.92;;;7.18;;
83893;SDS011;73920;51.902;6.374;2024-01-06T07:27:07;18.42;;;7.40;;
83893;SDS011;73920;51.902;6.374;2024-01-06T07:29:33;20.52;;;7.90;;
83893;SDS011;73920;51.902;6.374;2024-01-06T07:32:00;18.20;;;6.50;;
83893;SDS011;73920;51.902;6.374;2024-01-06T07:34:26;20.37;;;7.57;;
83893;SDS011;73920;51.902;6.374;2024-01-06T07:36:52;20.17;;;7.72;;
83893;SDS011;73920;51.902;6.374;2024-01-06T07:39:19;21.90;;;8.45;;
83893;SDS011;73920;51.902;6.374;2024-01-06T07:41:45;23.30;;;7.75;;
83893;SDS011;73920;51.902;6.374;2024-01-06T07:44:11;21.05;;;7.97;;
83893;SDS011;73920;51.902;6.374;2024-01-06T07:46:38;20.92;;;8.07;;
83893;SDS011;73920;51.902;6.374;2024-01-06T07:49:04;24.08;;;8.45;;
83893;SDS011;73920;51.902;6.374;2024-01-06T07:51:31;24.63;;;7.97;;
83893;SDS011;73920;51.902;6.374;2024-01-06T07:53:57;20.90;;;8.18;;
83893;SDS011;73920;51.902;6.374;2024-01-06T07:56:24;24.63;;;8.68;;
83893;SDS011;73920;51.902;6.374;2024-01-06T07:58:50;23.10;;;8.35;;
83893;SDS011;73920;51.902;6.374;2024-01-06T08:01:16;23.92;;;7.97;;
83893;SDS011;73920;51.902;6.374;2024-01-06T08:03:42;22.08;;;8.73;;
83893;SDS011;73920;51.902;6.374;2024-01-06T08:06:09;23.48;;;8.48;;
83893;SDS011;73920;51.902;6.374;2024-01-06T08:08:36;24.95;;;8.45;;
83893;SDS011;73920;51.902;6.374;2024-01-06T08:11:03;21.55;;;8.52;;
83893;SDS011;73920;51.902;6.374;2024-01-06T08:13:29;22.55;;;8.73;;
83893;SDS011;73920;51.902;6.374;2024-01-06T08:15:55;21.45;;;8.40;;
83893;SDS011;73920;51.902;6.374;2024-01-06T08:18:21;21.45;;;8.73;;
83893;SDS011;73920;51.902;6.374;2024-01-06T08:20:48;23.10;;;9.25;;
83893;SDS011;73920;51.902;6.374;2024-01-06T08:23:14;20.37;;;8.23;;
83893;SDS011;73920;51.902;6.374;2024-01-06T08:25:40;19.65;;;7.80;;
83893;SDS011;73920;51.902;6.374;2024-01-06T08:28:06;16.85;;;6.40;;
83893;SDS011;73920;51.902;6.374;2024-01-06T08:30:32;17.85;;;7.35;;
83893;SDS011;73920;51.902;6.374;2024-01-06T08:32:59;19.27;;;7.85;;
83893;SDS011;73920;51.902;6.374;2024-01-06T08:35:25;15.73;;;6.45;;
83893;SDS011;73920;51.902;6.374;2024-01-06T08:37:51;18.77;;;7.43;;
83893;SDS011;73920;51.902;6.374;2024-01-06T08:40:18;21.75;;;7.80;;
83893;SDS011;73920;51.902;6.374;2024-01-06T08:42:44;19.87;;;7.32;;
83893;SDS011;73920;51.902;6.374;2024-01-06T08:45:10;24.95;;;8.63;;
83893;SDS011;73920;51.902;6.374;2024-01-06T08:47:36;19.87;;;7.72;;
83893;SDS011;73920;51.902;6.374;2024-01-06T08:50:03;21.15;;;7.82;;
83893;SDS011;73920;51.902;6.374;2024-01-06T08:52:30;16.62;;;6.32;;
83893;SDS011;73920;51.902;6.374;2024-01-06T08:54:56;22.13;;;7.95;;
83893;SDS011;73920;51.902;6.374;2024-01-06T08:57:22;19.48;;;7.45;;
83893;SDS011;73920;51.902;6.374;2024-01-06T08:59:49;19.12;;;8.27;;
83893;SDS011;73920;51.902;6.374;2024-01-06T09:02:15;19.02;;;6.85;;
83893;SDS011;73920;51.902;6.374;2024-01-06T09:04:41;21.25;;;7.97;;
83893;SDS011;73920;51.902;6.374;2024-01-06T09:07:07;18.50;;;7.60;;
83893;SDS011;73920;51.902;6.374;2024-01-06T09:09:34;15.25;;;6.68;;
83893;SDS011;73920;51.902;6.374;2024-01-06T09:12:00;18.90;;;7.28;;
83893;SDS011;73920;51.902;6.374;2024-01-06T09:14:26;23.95;;;8.05;;
83893;SDS011;73920;51.902;6.374;2024-01-06T09:16:52;19.73;;;7.47;;
83893;SDS011;73920;51.902;6.374;2024-01-06T09:19:18;19.95;;;7.85;;
83893;SDS011;73920;51.902;6.374;2024-01-06T09:21:45;21.00;;;7.37;;
83893;SDS011;73920;51.902;6.374;2024-01-06T09:24:11;19.15;;;7.82;;
83893;SDS011;73920;51.902;6.374;2024-01-06T09:26:37;21.80;;;8.23;;
83893;SDS011;73920;51.902;6.374;2024-01-06T09:29:03;15.38;;;6.72;;
83893;SDS011;73920;51.902;6.374;2024-01-06T09:31:30;17.70;;;7.00;;
83893;SDS011;73920;51.902;6.374;2024-01-06T09:33:59;18.48;;;7.12;;
83893;SDS011;73920;51.902;6.374;2024-01-06T09:36:26;18.90;;;8.38;;
83893;SDS011;73920;51.902;6.374;2024-01-06T09:38:52;20.58;;;8.38;;
83893;SDS011;73920;51.902;6.374;2024-01-06T09:41:19;19.50;;;7.45;;
83893;SDS011;73920;51.902;6.374;2024-01-06T09:43:45;18.23;;;7.62;;
83893;SDS011;73920;51.902;6.374;2024-01-06T09:46:15;19.62;;;7.10;;
83893;SDS011;73920;51.902;6.374;2024-01-06T09:48:49;17.37;;;6.55;;
83893;SDS011;73920;51.902;6.374;2024-01-06T09:51:18;20.50;;;7.75;;
83893;SDS011;73920;51.902;6.374;2024-01-06T09:53:49;18.45;;;7.53;;
83893;SDS011;73920;51.902;6.374;2024-01-06T09:56:21;19.60;;;7.30;;
83893;SDS011;73920;51.902;6.374;2024-01-06T09:58:54;16.52;;;7.00;;
83893;SDS011;73920;51.902;6.374;2024-01-06T10:01:21;23.27;;;8.40;;
83893;SDS011;73920;51.902;6.374;2024-01-06T10:03:48;18.33;;;7.15;;
83893;SDS011;73920;51.902;6.374;2024-01-06T10:06:14;23.42;;;8.52;;
83893;SDS011;73920;51.902;6.374;2024-01-06T10:08:44;21.10;;;8.32;;
83893;SDS011;73920;51.902;6.374;2024-01-06T10:11:14;24.05;;;8.88;;
83893;SDS011;73920;51.902;6.374;2024-01-06T10:13:40;20.60;;;7.62;;
83893;SDS011;73920;51.902;6.374;2024-01-06T10:16:06;15.07;;;6.90;;
83893;SDS011;73920;51.902;6.374;2024-01-06T10:18:33;17.60;;;8.27;;
83893;SDS011;73920;51.902;6.374;2024-01-06T10:21:00;18.52;;;7.37;;
83893;SDS011;73920;51.902;6.374;2024-01-06T10:23:30;19.90;;;7.30;;
83893;SDS011;73920;51.902;6.374;2024-01-06T10:25:58;19.52;;;7.82;;
83893;SDS011;73920;51.902;6.374;2024-01-06T10:28:25;27.55;;;10.05;;
83893;SDS011;73920;51.902;6.374;2024-01-06T10:30:51;17.85;;;7.20;;
83893;SDS011;73920;51.902;6.374;2024-01-06T10:33:19;18.40;;;7.78;;
83893;SDS011;73920;51.902;6.374;2024-01-06T10:35:45;19.98;;;8.55;;
83893;SDS011;73920;51.902;6.374;2024-01-06T10:38:13;14.90;;;5.87;;
83893;SDS011;73920;51.902;6.374;2024-01-06T10:40:40;20.30;;;8.90;;
83893;SDS011;73920;51.902;6.374;2024-01-06T10:43:25;22.83;;;7.87;;
83893;SDS011;73920;51.902;6.374;2024-01-06T10:45:53;21.02;;;7.35;;
83893;SDS011;73920;51.902;6.374;2024-01-06T10:48:20;22.65;;;7.90;;
83893;SDS011;73920;51.902;6.374;2024-01-06T10:50:49;24.35;;;9.65;;
83893;SDS011;73920;51.902;6.374;2024-01-06T10:53:15;20.37;;;7.78;;
83893;SDS011;73920;51.902;6.374;2024-01-06T10:55:44;18.58;;;6.75;;
83893;SDS011;73920;51.902;6.374;2024-01-06T10:58:11;20.23;;;6.43;;
83893;SDS011;73920;51.902;6.374;2024-01-06T11:00:39;16.92;;;6.87;;
83893;SDS011;73920;51.902;6.374;2024-01-06T11:03:06;17.85;;;6.55;;
83893;SDS011;73920;51.902;6.374;2024-01-06T11:05:35;15.77;;;6.12;;
83893;SDS011;73920;51.902;6.374;2024-01-06T11:08:03;18.20;;;7.72;;
83893;SDS011;73920;51.902;6.374;2024-01-06T11:10:31;17.23;;;8.05;;
83893;SDS011;73920;51.902;6.374;2024-01-06T11:18:06;17.08;;;7.20;;
83893;SDS011;73920;51.902;6.374;2024-01-06T11:20:33;16.12;;;7.12;;
83893;SDS011;73920;51.902;6.374;2024-01-06T11:25:35;17.00;;;6.68;;
83893;SDS011;73920;51.902;6.374;2024-01-06T11:28:01;17.80;;;6.18;;
83893;SDS011;73920;51.902;6.374;2024-01-06T11:30:33;14.87;;;6.90;;
83893;SDS011;73920;51.902;6.374;2024-01-06T11:32:59;14.90;;;7.40;;
83893;SDS011;73920;51.902;6.374;2024-01-06T11:35:29;16.83;;;6.43;;
83893;SDS011;73920;51.902;6.374;2024-01-06T11:37:56;17.92;;;6.97;;
83893;SDS011;73920;51.902;6.374;2024-01-06T11:40:35;14.10;;;5.90;;
83893;SDS011;73920;51.902;6.374;2024-01-06T11:43:06;13.02;;;5.97;;
83893;SDS011;73920;51.902;6.374;2024-01-06T11:45:37;19.35;;;7.60;;
83893;SDS011;73920;51.902;6.374;2024-01-06T11:48:06;14.52;;;6.57;;
83893;SDS011;73920;51.902;6.374;2024-01-06T11:50:35;16.62;;;7.35;;
83893;SDS011;73920;51.902;6.374;2024-01-06T11:53:04;15.45;;;6.82;;
83893;SDS011;73920;51.902;6.374;2024-01-06T11:55:32;14.80;;;7.12;;
83893;SDS011;73920;51.902;6.374;2024-01-06T11:57:58;18.62;;;7.47;;
83893;SDS011;73920;51.902;6.374;2024-01-06T12:00:25;19.75;;;7.47;;
83893;SDS011;73920;51.902;6.374;2024-01-06T12:02:55;14.43;;;6.70;;
83893;SDS011;73920;51.902;6.374;2024-01-06T12:05:23;16.05;;;7.07;;
83893;SDS011;73920;51.902;6.374;2024-01-06T12:10:25;18.25;;;7.30;;
83893;SDS011;73920;51.902;6.374;2024-01-06T12:15:28;15.98;;;7.53;;
83893;SDS011;73920;51.902;6.374;2024-01-06T12:17:58;14.80;;;7.53;;
83893;SDS011;73920;51.902;6.374;2024-01-06T12:20:27;14.95;;;6.53;;
83893;SDS011;73920;51.902;6.374;2024-01-06T12:22:54;15.45;;;6.80;;
83893;SDS011;73920;51.902;6.374;2024-01-06T12:25:22;17.12;;;6.93;;
83893;SDS011;73920;51.902;6.374;2024-01-06T12:27:49;16.62;;;7.80;;
83893;SDS011;73920;51.902;6.374;2024-01-06T12:30:16;14.98;;;6.65;;
83893;SDS011;73920;51.902;6.374;2024-01-06T12:32:44;11.93;;;6.35;;
83893;SDS011;73920;51.902;6.374;2024-01-06T12:35:11;16.27;;;7.10;;
83893;SDS011;73920;51.902;6.374;2024-01-06T12:37:38;13.70;;;6.80;;
83893;SDS011;73920;51.902;6.374;2024-01-06T12:40:05;15.00;;;7.10;;
83893;SDS011;73920;51.902;6.374;2024-01-06T12:42:33;13.55;;;6.45;;
83893;SDS011;73920;51.902;6.374;2024-01-06T12:45:00;16.05;;;7.05;;
83893;SDS011;73920;51.902;6.374;2024-01-06T12:47:26;13.60;;;6.85;;
83893;SDS011;73920;51.902;6.374;2024-01-06T12:49:52;15.60;;;6.87;;
83893;SDS011;73920;51.902;6.374;2024-01-06T12:52:18;13.98;;;7.05;;
83893;SDS011;73920;51.902;6.374;2024-01-06T12:54:44;17.35;;;8.23;;
83893;SDS011;73920;51.902;6.374;2024-01-06T12:57:11;18.10;;;7.35;;
83893;SDS011;73920;51.902;6.374;2024-01-06T12:59:37;16.95;;;7.37;;
83893;SDS011;73920;51.902;6.374;2024-01-06T13:02:04;12.50;;;7.12;;
83893;SDS011;73920;51.902;6.374;2024-01-06T13:04:31;16.08;;;7.35;;
83893;SDS011;73920;51.902;6.374;2024-01-06T13:06:57;12.57;;;6.50;;
83893;SDS011;73920;51.902;6.374;2024-01-06T13:09:23;14.07;;;6.97;;
83893;SDS011;73920;51.902;6.374;2024-01-06T13:11:50;13.65;;;6.05;;
83893;SDS011;73920;51.902;6.374;2024-01-06T13:14:17;14.27;;;6.37;;
83893;SDS011;73920;51.902;6.374;2024-01-06T13:16:43;11.70;;;6.20;;
83893;SDS011;73920;51.902;6.374;2024-01-06T13:19:10;10.45;;;5.85;;
83893;SDS011;73920;51.902;6.374;2024-01-06T13:21:36;11.32;;;6.03;;
83893;SDS011;73920;51.902;6.374;2024-01-06T13:24:03;10.60;;;5.82;;
83893;SDS011;73920;51.902;6.374;2024-01-06T13:31:22;12.95;;;6.32;;
83893;SDS011;73920;51.902;6.374;2024-01-06T13:33:48;11.43;;;6.05;;
83893;SDS011;73920;51.902;6.374;2024-01-06T13:36:14;14.57;;;6.97;;
83893;SDS011;73920;51.902;6.374;2024-01-06T13:38:40;13.73;;;6.22;;
83893;SDS011;73920;51.902;6.374;2024-01-06T13:41:07;11.65;;;6.15;;
83893;SDS011;73920;51.902;6.374;2024-01-06T13:43:34;14.25;;;6.55;;
83893;SDS011;73920;51.902;6.374;2024-01-06T13:46:00;13.02;;;6.55;;
83893;SDS011;73920;51.902;6.374;2024-01-06T13:48:26;11.73;;;5.97;;
83893;SDS011;73920;51.902;6.374;2024-01-06T13:50:52;13.52;;;6.93;;
83893;SDS011;73920;51.902;6.374;2024-01-06T13:53:18;12.00;;;5.97;;
83893;SDS011;73920;51.902;6.374;2024-01-06T13:55:45;15.82;;;7.68;;
83893;SDS011;73920;51.902;6.374;2024-01-06T13:58:11;13.77;;;7.55;;
83893;SDS011;73920;51.902;6.374;2024-01-06T14:00:38;15.20;;;7.28;;
83893;SDS011;73920;51.902;6.374;2024-01-06T14:03:05;12.05;;;6.55;;
83893;SDS011;73920;51.902;6.374;2024-01-06T14:05:31;16.20;;;7.28;;
83893;SDS011;73920;51.902;6.374;2024-01-06T14:07:58;14.13;;;7.10;;
83893;SDS011;73920;51.902;6.374;2024-01-06T14:10:24;13.38;;;6.32;;
83893;SDS011;73920;51.902;6.374;2024-01-06T14:12:50;14.80;;;6.97;;
83893;SDS011;73920;51.902;6.374;2024-01-06T14:15:17;12.88;;;6.87;;
83893;SDS011;73920;51.902;6.374;2024-01-06T14:17:43;14.98;;;7.72;;
83893;SDS011;73920;51.902;6.374;2024-01-06T14:22:36;16.00;;;7.15;;
83893;SDS011;73920;51.902;6.374;2024-01-06T14:25:03;15.88;;;8.23;;
83893;SDS011;73920;51.902;6.374;2024-01-06T14:27:29;14.77;;;7.22;;
83893;SDS011;73920;51.902;6.374;2024-01-06T14:29:56;14.65;;;7.70;;
83893;SDS011;73920;51.902;6.374;2024-01-06T14:32:22;14.98;;;7.43;;
83893;SDS011;73920;51.902;6.374;2024-01-06T14:34:49;13.55;;;6.65;;
83893;SDS011;73920;51.902;6.374;2024-01-06T14:37:15;14.65;;;7.62;;
83893;SDS011;73920;51.902;6.374;2024-01-06T14:39:42;14.02;;;6.78;;
83893;SDS011;73920;51.902;6.374;2024-01-06T14:42:08;18.52;;;7.90;;
83893;SDS011;73920;51.902;6.374;2024-01-06T14:44:35;13.93;;;6.85;;
83893;SDS011;73920;51.902;6.374;2024-01-06T14:47:01;15.23;;;7.40;;
83893;SDS011;73920;51.902;6.374;2024-01-06T14:49:28;14.98;;;7.72;;
83893;SDS011;73920;51.902;6.374;2024-01-06T14:51:54;16.48;;;8.27;;
83893;SDS011;73920;51.902;6.374;2024-01-06T14:54:21;17.58;;;7.80;;
83893;SDS011;73920;51.902;6.374;2024-01-06T14:56:47;16.05;;;7.65;;
83893;SDS011;73920;51.902;6.374;2024-01-06T14:59:13;15.38;;;7.65;;
83893;SDS011;73920;51.902;6.374;2024-01-06T15:01:42;17.00;;;7.28;;
83893;SDS011;73920;51.902;6.374;2024-01-06T15:04:08;16.98;;;8.20;;
83893;SDS011;73920;51.902;6.374;2024-01-06T15:06:35;14.80;;;7.53;;
83893;SDS011;73920;51.902;6.374;2024-01-06T15:09:01;18.08;;;8.65;;
83893;SDS011;73920;51.902;6.374;2024-01-06T15:11:27;15.68;;;8.10;;
83893;SDS011;73920;51.902;6.374;2024-01-06T15:13:53;17.65;;;7.78;;
83893;SDS011;73920;51.902;6.374;2024-01-06T15:16:19;16.45;;;8.13;;
83893;SDS011;73920;51.902;6.374;2024-01-06T15:18:46;17.70;;;8.00;;
83893;SDS011;73920;51.902;6.374;2024-01-06T15:21:12;18.55;;;7.93;;
83893;SDS011;73920;51.902;6.374;2024-01-06T15:23:38;16.70;;;7.80;;
83893;SDS011;73920;51.902;6.374;2024-01-06T15:26:04;19.70;;;8.73;;
83893;SDS011;73920;51.902;6.374;2024-01-06T15:28:30;16.67;;;7.72;;
83893;SDS011;73920;51.902;6.374;2024-01-06T15:30:57;16.80;;;8.07;;
83893;SDS011;73920;51.902;6.374;2024-01-06T15:33:23;14.93;;;7.45;;
83893;SDS011;73920;51.902;6.374;2024-01-06T15:35:49;16.30;;;8.30;;
83893;SDS011;73920;51.902;6.374;2024-01-06T15:38:15;15.93;;;7.12;;
83893;SDS011;73920;51.902;6.374;2024-01-06T15:40:41;15.10;;;8.13;;
83893;SDS011;73920;51.902;6.374;2024-01-06T15:43:08;14.02;;;7.07;;
83893;SDS011;73920;51.902;6.374;2024-01-06T15:45:34;18.90;;;8.55;;
83893;SDS011;73920;51.902;6.374;2024-01-06T15:48:02;16.17;;;7.37;;
83893;SDS011;73920;51.902;6.374;2024-01-06T15:50:29;16.37;;;8.20;;
83893;SDS011;73920;51.902;6.374;2024-01-06T15:52:55;15.98;;;7.50;;
83893;SDS011;73920;51.902;6.374;2024-01-06T15:55:21;19.20;;;7.65;;
83893;SDS011;73920;51.902;6.374;2024-01-06T15:57:47;19.92;;;8.15;;
83893;SDS011;73920;51.902;6.374;2024-01-06T16:00:14;16.90;;;7.12;;
83893;SDS011;73920;51.902;6.374;2024-01-06T16:02:41;13.30;;;7.12;;
83893;SDS011;73920;51.902;6.374;2024-01-06T16:05:08;17.12;;;7.00;;
83893;SDS011;73920;51.902;6.374;2024-01-06T16:07:35;17.02;;;7.90;;
83893;SDS011;73920;51.902;6.374;2024-01-06T16:10:01;18.02;;;8.25;;
83893;SDS011;73920;51.902;6.374;2024-01-06T16:12:28;17.00;;;7.75;;
83893;SDS011;73920;51.902;6.374;2024-01-06T16:14:54;19.33;;;8.77;;
83893;SDS011;73920;51.902;6.374;2024-01-06T16:17:21;17.23;;;8.25;;
83893;SDS011;73920;51.902;6.374;2024-01-06T16:19:48;15.32;;;7.62;;
83893;SDS011;73920;51.902;6.374;2024-01-06T16:22:14;17.85;;;8.10;;
83893;SDS011;73920;51.902;6.374;2024-01-06T16:24:40;21.20;;;8.63;;
83893;SDS011;73920;51.902;6.374;2024-01-06T16:27:06;18.75;;;8.65;;
83893;SDS011;73920;51.902;6.374;2024-01-06T16:29:32;18.67;;;7.65;;
83893;SDS011;73920;51.902;6.374;2024-01-06T16:31:59;16.27;;;8.02;;
83893;SDS011;73920;51.902;6.374;2024-01-06T16:34:25;15.05;;;7.78;;
83893;SDS011;73920;51.902;6.374;2024-01-06T16:36:51;16.00;;;7.30;;
83893;SDS011;73920;51.902;6.374;2024-01-06T16:39:17;18.60;;;8.40;;
83893;SDS011;73920;51.902;6.374;2024-01-06T16:41:43;14.60;;;7.55;;
83893;SDS011;73920;51.902;6.374;2024-01-06T16:44:10;13.62;;;6.72;;
83893;SDS011;73920;51.902;6.374;2024-01-06T16:46:36;13.85;;;6.57;;
83893;SDS011;73920;51.902;6.374;2024-01-06T16:49:02;15.45;;;6.87;;
83893;SDS011;73920;51.902;6.374;2024-01-06T16:51:28;14.35;;;7.15;;
83893;SDS011;73920;51.902;6.374;2024-01-06T16:53:54;19.17;;;8.35;;
83893;SDS011;73920;51.902;6.374;2024-01-06T16:56:21;18.08;;;7.82;;
83893;SDS011;73920;51.902;6.374;2024-01-06T16:58:47;16.52;;;7.53;;
83893;SDS011;73920;51.902;6.374;2024-01-06T17:01:13;15.85;;;7.50;;
83893;SDS011;73920;51.902;6.374;2024-01-06T17:03:39;16.00;;;7.75;;
83893;SDS011;73920;51.902;6.374;2024-01-06T17:06:05;12.95;;;7.12;;
83893;SDS011;73920;51.902;6.374;2024-01-06T17:08:32;14.45;;;7.50;;
83893;SDS011;73920;51.902;6.374;2024-01-06T17:10:58;17.87;;;8.25;;
83893;SDS011;73920;51.902;6.374;2024-01-06T17:13:24;18.83;;;8.65;;
83893;SDS011;73920;51.902;6.374;2024-01-06T17:15:50;16.50;;;8.30;;
83893;SDS011;73920;51.902;6.374;2024-01-06T17:18:16;17.33;;;8.35;;
83893;SDS011;73920;51.902;6.374;2024-01-06T17:20:43;14.57;;;7.32;;
83893;SDS011;73920;51.902;6.374;2024-01-06T17:23:09;17.17;;;7.85;;
83893;SDS011;73920;51.902;6.374;2024-01-06T17:25:35;16.98;;;7.78;;
83893;SDS011;73920;51.902;6.374;2024-01-06T17:28:01;15.85;;;7.85;;
83893;SDS011;73920;51.902;6.374;2024-01-06T17:30:28;24.20;;;10.00;;
83893;SDS011;73920;51.902;6.374;2024-01-06T17:32:54;19.75;;;7.43;;
83893;SDS011;73920;51.902;6.374;2024-01-06T17:35:21;15.23;;;7.55;;
83893;SDS011;73920;51.902;6.374;2024-01-06T17:37:47;17.45;;;8.55;;
83893;SDS011;73920;51.902;6.374;2024-01-06T17:40:14;17.35;;;7.72;;
83893;SDS011;73920;51.902;6.374;2024-01-06T17:42:40;20.33;;;7.60;;
83893;SDS011;73920;51.902;6.374;2024-01-06T17:45:07;15.68;;;7.90;;
83893;SDS011;73920;51.902;6.374;2024-01-06T17:47:33;18.00;;;7.28;;
83893;SDS011;73920;51.902;6.374;2024-01-06T17:50:00;13.30;;;6.45;;
83893;SDS011;73920;51.902;6.374;2024-01-06T17:52:26;18.37;;;8.18;;
83893;SDS011;73920;51.902;6.374;2024-01-06T17:54:52;17.83;;;8.38;;
83893;SDS011;73920;51.902;6.374;2024-01-06T17:57:18;16.90;;;7.57;;
83893;SDS011;73920;51.902;6.374;2024-01-06T17:59:45;15.85;;;8.13;;
83893;SDS011;73920;51.902;6.374;2024-01-06T18:02:11;19.37;;;7.40;;
83893;SDS011;73920;51.902;6.374;2024-01-06T18:04:38;20.67;;;8.52;;
83893;SDS011;73920;51.902;6.374;2024-01-06T18:07:04;16.10;;;8.43;;
83893;SDS011;73920;51.902;6.374;2024-01-06T18:09:31;17.70;;;7.78;;
83893;SDS011;73920;51.902;6.374;2024-01-06T18:11:57;18.45;;;8.63;;
83893;SDS011;73920;51.902;6.374;2024-01-06T18:14:23;19.25;;;7.85;;
83893;SDS011;73920;51.902;6.374;2024-01-06T18:16:49;22.50;;;9.65;;
83893;SDS011;73920;51.902;6.374;2024-01-06T18:19:16;21.33;;;9.05;;
83893;SDS011;73920;51.902;6.374;2024-01-06T18:21:45;23.00;;;9.55;;
83893;SDS011;73920;51.902;6.374;2024-01-06T18:24:11;21.52;;;8.77;;
83893;SDS011;73920;51.902;6.374;2024-01-06T18:26:37;20.23;;;8.80;;
83893;SDS011;73920;51.902;6.374;2024-01-06T18:29:03;23.25;;;9.55;;
83893;SDS011;73920;51.902;6.374;2024-01-06T18:31:30;20.75;;;8.98;;
83893;SDS011;73920;51.902;6.374;2024-01-06T18:33:56;22.00;;;9.20;;
83893;SDS011;73920;51.902;6.374;2024-01-06T18:36:22;22.58;;;9.32;;
83893;SDS011;73920;51.902;6.374;2024-01-06T18:38:49;20.60;;;9.68;;
83893;SDS011;73920;51.902;6.374;2024-01-06T18:41:15;19.42;;;9.77;;
83893;SDS011;73920;51.902;6.374;2024-01-06T18:43:41;19.55;;;9.30;;
83893;SDS011;73920;51.902;6.374;2024-01-06T18:46:07;21.58;;;9.40;;
83893;SDS011;73920;51.902;6.374;2024-01-06T18:48:35;19.48;;;8.73;;
83893;SDS011;73920;51.902;6.374;2024-01-06T18:51:02;24.02;;;10.40;;
83893;SDS011;73920;51.902;6.374;2024-01-06T18:53:28;23.87;;;9.85;;
83893;SDS011;73920;51.902;6.374;2024-01-06T18:55:54;24.80;;;9.63;;
83893;SDS011;73920;51.902;6.374;2024-01-06T18:58:21;23.87;;;9.60;;
83893;SDS011;73920;51.902;6.374;2024-01-06T19:00:47;24.58;;;9.60;;
83893;SDS011;73920;51.902;6.374;2024-01-06T19:03:13;29.60;;;10.32;;
83893;SDS011;73920;51.902;6.374;2024-01-06T19:05:39;22.35;;;8.98;;
83893;SDS011;73920;51.902;6.374;2024-01-06T19:08:06;25.05;;;10.35;;
83893;SDS011;73920;51.902;6.374;2024-01-06T19:10:32;25.37;;;9.82;;
83893;SDS011;73920;51.902;6.374;2024-01-06T19:12:58;23.02;;;9.80;;
83893;SDS011;73920;51.902;6.374;2024-01-06T19:15:24;21.23;;;10.00;;
83893;SDS011;73920;51.902;6.374;2024-01-06T19:17:51;20.95;;;8.52;;
83893;SDS011;73920;51.902;6.374;2024-01-06T19:20:17;21.62;;;9.50;;
83893;SDS011;73920;51.902;6.374;2024-01-06T19:22:43;22.65;;;9.27;;
83893;SDS011;73920;51.902;6.374;2024-01-06T19:25:09;19.20;;;8.80;;
83893;SDS011;73920;51.902;6.374;2024-01-06T19:27:37;20.33;;;8.88;;
83893;SDS011;73920;51.902;6.374;2024-01-06T19:30:03;25.23;;;10.40;;
83893;SDS011;73920;51.902;6.374;2024-01-06T19:32:30;24.83;;;10.10;;
83893;SDS011;73920;51.902;6.374;2024-01-06T19:34:56;18.42;;;8.23;;
83893;SDS011;73920;51.902;6.374;2024-01-06T19:37:23;17.62;;;8.38;;
83893;SDS011;73920;51.902;6.374;2024-01-06T19:39:49;25.08;;;11.12;;
83893;SDS011;73920;51.902;6.374;2024-01-06T19:42:15;19.67;;;8.55;;
83893;SDS011;73920;51.902;6.374;2024-01-06T19:44:41;22.92;;;9.05;;
83893;SDS011;73920;51.902;6.374;2024-01-06T19:47:08;23.50;;;9.27;;
83893;SDS011;73920;51.902;6.374;2024-01-06T19:49:34;22.77;;;9.48;;
83893;SDS011;73920;51.902;6.374;2024-01-06T19:52:00;19.55;;;8.27;;
83893;SDS011;73920;51.902;6.374;2024-01-06T19:54:27;24.33;;;10.60;;
83893;SDS011;73920;51.902;6.374;2024-01-06T19:56:53;20.92;;;9.90;;
83893;SDS011;73920;51.902;6.374;2024-01-06T19:59:19;25.58;;;10.27;;
83893;SDS011;73920;51.902;6.374;2024-01-06T20:01:45;23.45;;;10.13;;
83893;SDS011;73920;51.902;6.374;2024-01-06T20:04:12;30.62;;;11.85;;
83893;SDS011;73920;51.902;6.374;2024-01-06T20:06:38;25.50;;;10.27;;
83893;SDS011;73920;51.902;6.374;2024-01-06T20:09:04;21.62;;;10.60;;
83893;SDS011;73920;51.902;6.374;2024-01-06T20:11:30;21.50;;;8.90;;
83893;SDS011;73920;51.902;6.374;2024-01-06T20:13:56;22.35;;;9.73;;
83893;SDS011;73920;51.902;6.374;2024-01-06T20:16:23;20.17;;;9.10;;
83893;SDS011;73920;51.902;6.374;2024-01-06T20:18:49;17.40;;;8.63;;